createdAt,value
2022-08-03T00:00:15.116Z,16.48
2022-08-03T00:02:47.585Z,16.39
2022-08-03T00:05:20.139Z,16.31
2022-08-03T00:07:52.531Z,16.20
2022-08-03T00:10:26.250Z,16.28
2022-08-03T00:12:58.684Z,16.34
2022-08-03T00:15:31.131Z,16.38
2022-08-03T00:18:03.609Z,16.43
2022-08-03T00:20:36.430Z,16.31
2022-08-03T00:23:08.795Z,16.23
2022-08-03T00:25:42.307Z,16.14
2022-08-03T00:28:14.715Z,16.24
2022-08-03T00:30:47.904Z,16.23
2022-08-03T00:33:20.638Z,16.23
2022-08-03T00:35:54.417Z,16.16
2022-08-03T00:38:26.830Z,16.14
2022-08-03T00:40:59.923Z,16.12
2022-08-03T00:43:32.363Z,16.11
2022-08-03T00:46:04.811Z,16.12
2022-08-03T00:48:37.439Z,16.13
2022-08-03T00:51:10.040Z,16.15
2022-08-03T00:53:43.219Z,16.18
2022-08-03T00:56:17.631Z,16.13
2022-08-03T00:58:51.392Z,16.08
2022-08-03T01:01:23.812Z,16.05
2022-08-03T01:03:56.244Z,16.08
2022-08-03T01:06:36.528Z,16.00
2022-08-03T01:09:18.032Z,15.89
2022-08-03T01:12:01.707Z,15.88
2022-08-03T01:14:39.124Z,15.80
2022-08-03T01:17:16.649Z,15.89
2022-08-03T01:19:56.054Z,15.91
2022-08-03T01:23:00.406Z,15.90
2022-08-03T01:25:47.960Z,15.88
2022-08-03T01:28:48.039Z,15.90
2022-08-03T01:31:27.030Z,15.76
2022-08-03T01:34:03.218Z,15.69
2022-08-03T01:36:40.244Z,15.71
2022-08-03T01:39:13.384Z,15.70
2022-08-03T01:41:49.311Z,15.64
2022-08-03T01:44:27.593Z,15.66
2022-08-03T01:47:05.703Z,15.70
2022-08-03T01:49:43.024Z,15.74
2022-08-03T01:52:19.598Z,15.78
2022-08-03T01:54:53.531Z,15.78
2022-08-03T01:57:28.992Z,15.78
2022-08-03T02:00:01.513Z,15.76
2022-08-03T02:02:46.967Z,15.73
2022-08-03T02:05:20.639Z,15.61
2022-08-03T02:07:55.025Z,15.63
2022-08-03T02:10:35.403Z,15.61
2022-08-03T02:13:09.391Z,15.63
2022-08-03T02:15:44.135Z,15.62
2022-08-03T02:18:19.638Z,15.60
2022-08-03T02:20:52.322Z,15.59
2022-08-03T02:23:24.773Z,15.63
2022-08-03T02:26:00.566Z,15.64
2022-08-03T02:28:37.118Z,15.58
2022-08-03T02:31:15.187Z,15.52
2022-08-03T02:33:51.263Z,15.47
2022-08-03T02:36:26.670Z,15.45
2022-08-03T02:39:02.234Z,15.41
2022-08-03T02:41:37.995Z,15.38
2022-08-03T02:44:13.429Z,15.40
2022-08-03T02:46:49.191Z,15.35
2022-08-03T02:49:42.608Z,15.42
2022-08-03T02:52:18.395Z,15.41
2022-08-03T02:54:54.800Z,15.42
2022-08-03T02:57:29.458Z,15.42
2022-08-03T03:00:02.163Z,15.37
2022-08-03T03:02:36.998Z,15.25
2022-08-03T03:05:52.728Z,15.26
2022-08-03T03:08:04.782Z,15.23
2022-08-03T03:10:53.324Z,15.19
2022-08-03T03:13:30.058Z,15.17
2022-08-03T03:16:05.751Z,15.15
2022-08-03T03:18:38.970Z,15.22
2022-08-03T03:21:14.162Z,15.22
2022-08-03T03:23:47.011Z,15.15
2022-08-03T03:26:19.472Z,15.14
2022-08-03T03:28:52.228Z,15.13
2022-08-03T03:31:24.719Z,15.08
2022-08-03T03:33:58.106Z,15.10
2022-08-03T03:36:31.327Z,14.96
2022-08-03T03:39:15.191Z,14.97
2022-08-03T03:41:48.830Z,15.02
2022-08-03T03:44:21.512Z,14.95
2022-08-03T03:46:54.311Z,14.92
2022-08-03T03:49:27.276Z,15.01
2022-08-03T03:52:00.449Z,14.97
2022-08-03T03:54:40.146Z,14.91
2022-08-03T03:57:12.903Z,15.00
2022-08-03T03:59:45.555Z,14.89
2022-08-03T04:02:18.295Z,14.84
2022-08-03T04:05:08.873Z,14.90
2022-08-03T04:08:16.228Z,14.94
2022-08-03T04:11:02.155Z,14.88
2022-08-03T04:13:38.455Z,14.98
2022-08-03T04:16:14.387Z,14.93
2022-08-03T04:18:50.983Z,15.01
2022-08-03T04:21:25.317Z,14.99
2022-08-03T04:24:01.440Z,14.89
2022-08-03T04:26:36.946Z,14.96
2022-08-03T04:29:11.643Z,14.92
2022-08-03T04:31:46.435Z,14.95
2022-08-03T04:34:19.019Z,14.95
2022-08-03T04:36:57.949Z,15.11
2022-08-03T04:39:32.741Z,15.16
2022-08-03T04:42:09.255Z,15.25
2022-08-03T04:44:44.535Z,15.27
2022-08-03T04:47:17.104Z,15.29
2022-08-03T04:49:49.866Z,15.40
2022-08-03T04:52:22.331Z,15.47
2022-08-03T04:54:55.376Z,15.61
2022-08-03T04:57:27.868Z,15.65
2022-08-03T05:00:03.142Z,15.77
2022-08-03T05:02:36.999Z,15.84
2022-08-03T05:05:11.258Z,15.92
2022-08-03T05:07:44.352Z,16.00
2022-08-03T05:10:17.896Z,16.11
2022-08-03T05:12:51.024Z,16.20
2022-08-03T05:15:23.439Z,16.27
2022-08-03T05:17:55.838Z,16.39
2022-08-03T05:20:28.233Z,16.51
2022-08-03T05:23:01.292Z,16.64
2022-08-03T05:25:34.363Z,16.82
2022-08-03T05:28:06.948Z,16.98
2022-08-03T05:30:39.408Z,17.12
2022-08-03T05:33:11.814Z,17.31
2022-08-03T05:36:00.955Z,17.43
2022-08-03T05:38:36.607Z,17.68
2022-08-03T05:41:23.734Z,17.81
2022-08-03T05:44:02.259Z,18.07
2022-08-03T05:46:34.699Z,18.28
2022-08-03T05:49:07.149Z,18.43
2022-08-03T05:51:39.614Z,18.59
2022-08-03T05:54:12.193Z,18.77
2022-08-03T05:56:45.801Z,19.00
2022-08-03T05:59:37.621Z,19.12
2022-08-03T06:02:11.094Z,19.41
2022-08-03T06:04:43.625Z,19.57
2022-08-03T06:07:16.053Z,19.67
2022-08-03T06:10:34.519Z,19.84
2022-08-03T06:12:41.720Z,20.06
2022-08-03T06:15:14.836Z,20.27
2022-08-03T06:17:47.851Z,20.42
2022-08-03T06:20:20.928Z,20.65
2022-08-03T06:23:00.840Z,20.78
2022-08-03T06:25:33.560Z,21.02
2022-08-03T06:28:09.474Z,21.12
2022-08-03T06:30:44.870Z,21.29
2022-08-03T06:33:17.332Z,21.41
2022-08-03T06:35:49.712Z,21.54
2022-08-03T06:38:22.535Z,21.76
2022-08-03T06:40:55.129Z,21.96
2022-08-03T06:43:28.281Z,22.06
2022-08-03T06:46:08.650Z,22.26
2022-08-03T06:48:41.050Z,22.42
2022-08-03T06:51:13.835Z,22.48
2022-08-03T06:53:46.247Z,22.54
2022-08-03T06:56:19.880Z,22.66
2022-08-03T06:58:53.007Z,22.80
2022-08-03T07:01:25.504Z,23.00
2022-08-03T07:03:58.190Z,23.07
2022-08-03T07:06:31.000Z,23.13
2022-08-03T07:09:03.736Z,23.23
2022-08-03T07:11:36.288Z,23.41
2022-08-03T07:14:09.460Z,23.56
2022-08-03T07:16:42.191Z,23.67
2022-08-03T07:19:14.670Z,23.84
2022-08-03T07:21:47.147Z,23.93
2022-08-03T07:24:19.580Z,24.09
2022-08-03T07:26:53.531Z,24.12
2022-08-03T07:29:26.762Z,24.32
2022-08-03T07:31:59.159Z,24.45
2022-08-03T07:34:31.634Z,24.58
2022-08-03T07:37:04.199Z,24.79
2022-08-03T07:39:36.665Z,24.80
2022-08-03T07:42:09.147Z,24.85
2022-08-03T07:44:42.223Z,25.02
2022-08-03T07:47:22.390Z,25.24
2022-08-03T07:49:55.889Z,25.45
2022-08-03T07:52:46.290Z,25.56
2022-08-03T07:55:19.680Z,25.65
2022-08-03T07:58:03.172Z,25.69
2022-08-03T08:00:36.528Z,25.82
2022-08-03T08:03:09.404Z,26.05
2022-08-03T08:05:42.143Z,26.07
2022-08-03T08:08:14.675Z,26.30
2022-08-03T08:10:58.561Z,26.43
2022-08-03T08:13:31.255Z,26.36
2022-08-03T08:16:04.789Z,26.58
2022-08-03T08:18:37.191Z,26.68
2022-08-03T08:21:09.558Z,26.88
2022-08-03T08:23:46.229Z,27.01
2022-08-03T08:26:27.409Z,27.12
2022-08-03T08:28:59.834Z,27.01
2022-08-03T08:31:33.637Z,27.41
2022-08-03T08:34:06.762Z,27.55
2022-08-03T08:36:39.151Z,27.76
2022-08-03T08:39:11.960Z,27.68
2022-08-03T08:41:53.300Z,27.86
2022-08-03T08:44:25.955Z,27.90
2022-08-03T08:47:03.122Z,27.93
2022-08-03T08:49:38.224Z,27.84
2022-08-03T08:52:25.464Z,27.86
2022-08-03T08:55:03.959Z,27.95
2022-08-03T08:57:43.059Z,28.09
2022-08-03T09:00:17.146Z,28.23
2022-08-03T09:02:50.415Z,28.40
2022-08-03T09:05:36.278Z,28.43
2022-08-03T09:08:15.879Z,28.51
2022-08-03T09:10:48.502Z,28.73
2022-08-03T09:13:21.024Z,28.92
2022-08-03T09:16:14.102Z,29.08
2022-08-03T09:18:49.424Z,29.43
2022-08-03T09:21:32.944Z,29.71
2022-08-03T09:24:13.008Z,29.88
2022-08-03T09:26:53.575Z,30.19
2022-08-03T09:29:26.521Z,30.32
2022-08-03T09:32:03.008Z,30.35
2022-08-03T09:34:36.479Z,30.29
2022-08-03T09:37:14.329Z,30.01
2022-08-03T09:39:47.272Z,30.23
2022-08-03T09:42:24.120Z,29.97
2022-08-03T09:44:57.448Z,30.39
2022-08-03T09:47:31.817Z,30.54
2022-08-03T09:50:07.211Z,30.51
2022-08-03T09:52:51.864Z,30.50
2022-08-03T09:56:34.728Z,30.46
2022-08-03T09:58:18.075Z,30.38
2022-08-03T10:00:58.548Z,30.44
2022-08-03T10:03:32.740Z,30.62
2022-08-03T10:06:17.007Z,30.67
2022-08-03T10:09:06.864Z,30.59
2022-08-03T10:11:41.974Z,30.69
2022-08-03T10:14:18.441Z,30.35
2022-08-03T10:16:51.327Z,30.31
2022-08-03T10:19:25.541Z,30.45
2022-08-03T10:22:06.909Z,30.46
2022-08-03T10:24:45.633Z,30.50
2022-08-03T10:27:19.184Z,30.42
2022-08-03T10:29:54.726Z,30.62
2022-08-03T10:32:30.953Z,30.81
2022-08-03T10:35:20.794Z,30.48
2022-08-03T10:37:58.839Z,30.57
2022-08-03T10:40:48.523Z,30.55
2022-08-03T10:43:27.241Z,30.31
2022-08-03T10:46:01.623Z,30.54
2022-08-03T10:48:35.968Z,30.54
2022-08-03T10:51:08.876Z,30.92
2022-08-03T10:53:46.213Z,31.19
2022-08-03T10:57:04.131Z,30.77
2022-08-03T11:00:05.883Z,30.91
2022-08-03T11:03:05.539Z,31.06
2022-08-03T11:05:40.648Z,31.23
2022-08-03T11:08:22.151Z,31.53
2022-08-03T11:10:57.990Z,31.66
2022-08-03T11:13:33.081Z,31.39
2022-08-03T11:16:21.834Z,31.60
2022-08-03T11:18:59.699Z,31.68
2022-08-03T11:21:54.443Z,31.14
2022-08-03T11:24:58.196Z,31.25
2022-08-03T11:27:32.869Z,30.91
2022-08-03T11:30:07.647Z,30.65
2022-08-03T11:32:59.647Z,30.62
2022-08-03T11:35:35.064Z,30.53
2022-08-03T11:38:09.668Z,30.81
2022-08-03T11:40:44.551Z,30.55
2022-08-03T11:43:45.972Z,30.23
2022-08-03T11:46:29.949Z,30.52
2022-08-03T11:49:09.960Z,31.16
2022-08-03T11:51:43.281Z,31.10
2022-08-03T11:54:19.829Z,30.92
2022-08-03T11:56:52.422Z,30.90
2022-08-03T11:59:33.279Z,30.82
2022-08-03T12:02:10.240Z,30.80
2022-08-03T12:04:52.037Z,30.68
2022-08-03T12:08:04.209Z,30.40
2022-08-03T12:10:19.226Z,30.42
2022-08-03T12:12:55.837Z,30.68
2022-08-03T12:15:33.295Z,30.66
2022-08-03T12:18:15.157Z,30.54
2022-08-03T12:20:49.504Z,30.57
2022-08-03T12:23:21.954Z,30.44
2022-08-03T12:26:02.539Z,30.26
2022-08-03T12:28:38.333Z,30.44
2022-08-03T12:31:13.071Z,30.42
2022-08-03T12:33:56.395Z,30.44
2022-08-03T12:36:30.510Z,30.26
2022-08-03T12:39:05.240Z,30.46
2022-08-03T12:41:39.148Z,30.65
2022-08-03T12:44:11.615Z,30.80
2022-08-03T12:46:47.950Z,30.90
2022-08-03T12:49:20.965Z,30.73
2022-08-03T12:51:57.831Z,30.73
2022-08-03T12:54:31.837Z,30.67
2022-08-03T12:57:05.866Z,30.56
2022-08-03T12:59:41.855Z,30.15
2022-08-03T13:02:24.522Z,29.99
2022-08-03T13:04:57.141Z,29.82
2022-08-03T13:07:40.467Z,29.81
2022-08-03T13:10:28.046Z,29.90
2022-08-03T13:13:02.939Z,29.73
2022-08-03T13:15:38.658Z,29.39
2022-08-03T13:18:21.011Z,29.01
2022-08-03T13:20:53.446Z,29.06
2022-08-03T13:23:25.987Z,29.02
2022-08-03T13:25:58.418Z,28.96
2022-08-03T13:28:30.821Z,28.95
2022-08-03T13:31:03.391Z,28.83
2022-08-03T13:33:36.422Z,28.79
2022-08-03T13:36:08.911Z,28.96
2022-08-03T13:38:41.344Z,28.88
2022-08-03T13:41:15.622Z,28.94
2022-08-03T13:43:50.027Z,28.86
2022-08-03T13:46:29.936Z,28.92
2022-08-03T13:49:02.961Z,28.97
2022-08-03T13:51:35.375Z,28.91
2022-08-03T13:54:08.134Z,28.83
2022-08-03T13:56:41.258Z,28.91
2022-08-03T13:59:13.628Z,28.92
2022-08-03T14:01:55.374Z,28.87
2022-08-03T14:04:28.909Z,28.86
2022-08-03T14:07:01.465Z,28.80
2022-08-03T14:09:33.848Z,28.64
2022-08-03T14:12:08.014Z,28.72
2022-08-03T14:14:41.231Z,28.72
2022-08-03T14:17:13.761Z,28.41
2022-08-03T14:19:53.311Z,28.54
2022-08-03T14:22:26.391Z,28.49
2022-08-03T14:24:58.871Z,28.49
2022-08-03T14:27:31.449Z,28.32
2022-08-03T14:30:04.531Z,28.26
2022-08-03T14:32:36.998Z,28.24
2022-08-03T14:35:10.200Z,27.97
2022-08-03T14:37:42.661Z,28.11
2022-08-03T14:40:15.302Z,28.16
2022-08-03T14:42:47.796Z,28.11
2022-08-03T14:45:20.747Z,28.05
2022-08-03T14:50:28.515Z,28.10
2022-08-03T14:50:51.059Z,27.97
2022-08-03T14:53:24.344Z,27.97
2022-08-03T14:55:57.125Z,27.88
2022-08-03T14:58:29.598Z,27.93
2022-08-03T15:01:02.122Z,27.77
2022-08-03T15:03:34.692Z,27.47
2022-08-03T15:06:07.786Z,27.18
2022-08-03T15:08:40.231Z,27.09
2022-08-03T15:11:12.616Z,27.11
2022-08-03T15:13:45.046Z,27.04
2022-08-03T15:16:17.564Z,27.00
2022-08-03T15:18:50.003Z,27.07
2022-08-03T15:21:46.699Z,27.08
2022-08-03T15:24:15.538Z,26.83
2022-08-03T15:26:47.933Z,26.86
2022-08-03T15:30:05.629Z,26.85
2022-08-03T15:32:12.740Z,26.81
2022-08-03T15:34:50.336Z,26.81
2022-08-03T15:37:24.887Z,26.60
2022-08-03T15:39:59.578Z,26.55
2022-08-03T15:42:34.056Z,26.44
2022-08-03T15:45:07.372Z,26.41
2022-08-03T15:47:39.746Z,26.30
2022-08-03T15:50:12.215Z,26.39
2022-08-03T15:52:45.290Z,26.32
2022-08-03T15:55:17.786Z,26.09
2022-08-03T15:59:03.435Z,26.00
2022-08-03T16:00:43.014Z,25.68
2022-08-03T16:03:15.412Z,25.19
2022-08-03T16:05:47.831Z,25.20
2022-08-03T16:08:20.982Z,25.31
2022-08-03T16:10:53.467Z,25.31
2022-08-03T16:14:12.930Z,25.29
2022-08-03T16:16:20.202Z,25.18
2022-08-03T16:18:52.813Z,25.08
2022-08-03T16:21:25.229Z,25.10
2022-08-03T16:24:03.036Z,25.08
2022-08-03T16:26:39.781Z,25.12
2022-08-03T16:29:22.435Z,25.15
2022-08-03T16:31:56.291Z,25.11
2022-08-03T16:34:28.720Z,25.13
2022-08-03T16:37:16.487Z,25.07
2022-08-03T16:39:55.138Z,24.95
2022-08-03T16:42:27.573Z,25.09
2022-08-03T16:44:59.947Z,25.15
2022-08-03T16:47:32.611Z,25.19
2022-08-03T16:50:13.989Z,25.15
2022-08-03T16:52:49.851Z,25.20
2022-08-03T16:55:49.085Z,25.23
2022-08-03T16:58:17.290Z,25.19
2022-08-03T17:00:50.991Z,25.20
2022-08-03T17:03:24.209Z,25.21
2022-08-03T17:05:59.503Z,25.19
2022-08-03T17:08:33.733Z,25.18
2022-08-03T17:11:07.710Z,25.15
2022-08-03T17:13:40.696Z,25.12
2022-08-03T17:16:18.691Z,25.13
2022-08-03T17:18:57.827Z,25.14
2022-08-03T17:21:37.299Z,25.12
2022-08-03T17:24:20.066Z,25.05
2022-08-03T17:26:54.898Z,24.99
2022-08-03T17:29:30.426Z,25.05
2022-08-03T17:32:09.291Z,25.02
2022-08-03T17:34:44.410Z,25.01
2022-08-03T17:37:50.217Z,25.01
2022-08-03T17:40:17.436Z,25.02
2022-08-03T17:42:51.116Z,24.99
2022-08-03T17:45:23.547Z,24.97
2022-08-03T17:48:18.563Z,24.97
2022-08-03T17:50:55.258Z,24.95
2022-08-03T17:53:29.955Z,24.89
2022-08-03T17:56:42.584Z,24.94
2022-08-03T17:59:15.728Z,25.01
2022-08-03T18:02:29.523Z,24.97
2022-08-03T18:05:15.960Z,24.97
2022-08-03T18:07:59.300Z,24.85
2022-08-03T18:10:35.715Z,24.82
2022-08-03T18:13:10.503Z,24.73
2022-08-03T18:16:04.503Z,24.58
2022-08-03T18:18:40.925Z,24.58
2022-08-03T18:21:17.268Z,24.53
2022-08-03T18:23:51.483Z,24.38
2022-08-03T18:26:24.195Z,24.38
2022-08-03T18:28:58.016Z,24.39
2022-08-03T18:31:59.994Z,24.34
2022-08-03T18:34:32.590Z,24.32
2022-08-03T18:37:08.102Z,24.27
2022-08-03T18:39:49.864Z,24.24
2022-08-03T18:42:26.313Z,24.19
2022-08-03T18:45:14.684Z,23.98
2022-08-03T18:48:02.069Z,23.92
2022-08-03T18:50:39.746Z,23.87
2022-08-03T18:54:02.824Z,23.94
2022-08-03T18:56:26.471Z,23.92
2022-08-03T18:59:04.132Z,23.81
2022-08-03T19:01:59.875Z,23.66
2022-08-03T19:04:38.567Z,23.53
2022-08-03T19:07:22.141Z,23.49
2022-08-03T19:10:03.562Z,23.48
2022-08-03T19:12:42.106Z,23.37
2022-08-03T19:15:21.270Z,23.39
2022-08-03T19:18:16.324Z,23.32
2022-08-03T19:20:50.800Z,23.26
2022-08-03T19:23:25.974Z,23.12
2022-08-03T19:26:03.917Z,23.09
2022-08-03T19:28:36.706Z,22.97
2022-08-03T19:31:11.231Z,22.85
2022-08-03T19:33:55.824Z,22.83
2022-08-03T19:36:30.674Z,22.64
2022-08-03T19:39:08.283Z,22.60
2022-08-03T19:41:45.637Z,22.61
2022-08-03T19:44:30.314Z,22.58
2022-08-03T19:47:08.533Z,22.57
2022-08-03T19:50:06.323Z,22.58
2022-08-03T19:52:39.343Z,22.52
2022-08-03T19:55:14.278Z,22.57
2022-08-03T19:57:49.086Z,22.61
2022-08-03T20:00:26.185Z,22.59
2022-08-03T20:02:59.898Z,22.58
2022-08-03T20:05:45.061Z,22.57
2022-08-03T20:08:26.763Z,22.50
2022-08-03T20:10:59.798Z,22.46
2022-08-03T20:13:39.131Z,22.50
2022-08-03T20:16:12.102Z,22.46
2022-08-03T20:18:44.661Z,22.33
2022-08-03T20:21:18.213Z,22.25
2022-08-03T20:24:02.808Z,22.19
2022-08-03T20:26:53.450Z,22.13
2022-08-03T20:30:05.429Z,21.96
2022-08-03T20:32:24.882Z,21.85
2022-08-03T20:34:57.462Z,21.70
2022-08-03T20:37:31.135Z,21.65
2022-08-03T20:40:06.211Z,21.58
2022-08-03T20:42:38.700Z,21.57
2022-08-03T20:45:15.135Z,21.56
2022-08-03T20:48:04.643Z,21.49
2022-08-03T20:50:38.289Z,21.46
2022-08-03T20:53:12.091Z,21.26
2022-08-03T20:55:47.518Z,21.27
2022-08-03T20:58:35.307Z,21.14
2022-08-03T21:01:08.750Z,21.14
2022-08-03T21:03:52.377Z,21.12
2022-08-03T21:06:34.108Z,21.05
2022-08-03T21:09:06.593Z,21.00
2022-08-03T21:11:43.323Z,20.88
2022-08-03T21:14:22.383Z,20.80
2022-08-03T21:16:57.229Z,20.74
2022-08-03T21:19:32.079Z,20.67
2022-08-03T21:22:07.856Z,20.57
2022-08-03T21:24:43.328Z,20.50
2022-08-03T21:27:16.434Z,20.42
2022-08-03T21:29:53.162Z,20.34
2022-08-03T21:32:33.033Z,20.28
2022-08-03T21:35:09.174Z,20.32
2022-08-03T21:37:43.475Z,20.23
2022-08-03T21:40:16.760Z,20.13
2022-08-03T21:42:49.825Z,20.10
2022-08-03T21:45:22.263Z,20.08
2022-08-03T21:47:55.900Z,20.01
2022-08-03T21:50:29.324Z,20.00
2022-08-03T21:53:02.973Z,19.94
2022-08-03T21:55:38.142Z,19.90
2022-08-03T21:58:15.704Z,19.91
2022-08-03T22:00:48.383Z,19.84
2022-08-03T22:03:24.071Z,19.79
2022-08-03T22:06:04.790Z,19.83
2022-08-03T22:08:38.291Z,19.84
2022-08-03T22:11:11.116Z,19.79
2022-08-03T22:13:44.784Z,19.81
2022-08-03T22:16:17.538Z,19.77
2022-08-03T22:18:49.930Z,19.74
2022-08-03T22:21:36.361Z,19.75
2022-08-03T22:24:09.338Z,19.75
2022-08-03T22:27:03.358Z,19.62
2022-08-03T22:29:39.502Z,19.53
2022-08-03T22:32:12.055Z,19.42
2022-08-03T22:34:46.187Z,19.41
2022-08-03T22:37:20.554Z,19.35
2022-08-03T22:39:55.611Z,19.32
2022-08-03T22:42:29.023Z,19.24
2022-08-03T22:45:04.344Z,19.21
2022-08-03T22:47:39.965Z,19.13
2022-08-03T22:50:33.259Z,19.12
2022-08-03T22:53:07.203Z,19.14
2022-08-03T22:55:39.959Z,19.12
2022-08-03T22:58:14.798Z,19.12
2022-08-03T23:00:53.687Z,19.09
2022-08-03T23:03:58.504Z,18.99
2022-08-03T23:06:26.758Z,18.89
2022-08-03T23:08:59.970Z,18.80
2022-08-03T23:11:36.555Z,18.69
2022-08-03T23:14:12.301Z,18.66
2022-08-03T23:16:50.266Z,18.60
2022-08-03T23:19:26.263Z,18.57
2022-08-03T23:22:03.478Z,18.51
2022-08-03T23:24:37.354Z,18.52
2022-08-03T23:27:09.830Z,18.54
2022-08-03T23:29:43.546Z,18.41
2022-08-03T23:32:20.429Z,18.38
2022-08-03T23:35:14.306Z,18.40
2022-08-03T23:38:21.495Z,18.31
2022-08-03T23:40:41.526Z,18.22
2022-08-03T23:43:18.882Z,18.22
2022-08-03T23:46:08.829Z,18.25
2022-08-03T23:48:41.885Z,18.25
2022-08-03T23:51:23.230Z,18.17
2022-08-03T23:54:03.198Z,18.13
2022-08-03T23:56:57.323Z,18.06
2022-08-03T23:59:37.455Z,17.92
